RKJK/KUV METAR and TAF weather

Enter ICAO airport designator
Station Type Date Time Source
RKJK METAR 2021/09/25 12:56 UTC NOAA

RKJK 251256Z 07007KT 10SM FEW070 BKN150 21/17 A3016 RMK AO2A SLP217 T02100168 $


Station Type Date Time Source
RKJK Decoded METAR 2021/09/25 12:56 UTC NOAA

Kunsan Ab, Korea, South (RKJK) 35-55N 126-37E 10M
Sep 25, 2021 - 08:56 AM EDT / 2021.09.25 1256 UTC
Wind: from the ENE (070 degrees) at 8 MPH (7 KT):0
Visibility: 10 mile(s):0
Sky conditions: mostly cloudy
Temperature: 69.8 F (21.0 C)
Dew Point: 62.2 F (16.8 C)
Relative Humidity: 76%
Pressure (altimeter): 30.16 in. Hg (1021 hPa)
ob: RKJK 251256Z 07007KT 10SM FEW070 BKN150 21/17 A3016 RMK AO2A SLP217 T02100168
cycle: 13

Station Type Date Time Source
RKJK TAF 2021/09/25 08:06 UTC NOAA

TAF TAF RKJK 250800Z 2508/2614 06012KT 9999 FEW020 FEW050 SCT150 BKN200 QNH3012INS WND 05006KT AFT 2510
TEMPO 2520/2522 11006KT 3200 BR
BECMG 2603/2604 08009KT 9999 OVC100 QNH3005INS TX26/2604Z TN19/2521Z

Example: see airport list